createdAt,value
2023-02-11T00:00:21.023Z,4.98
2023-02-11T00:01:33.097Z,4.83
2023-02-11T00:02:27.109Z,4.75
2023-02-11T00:03:21.068Z,4.79
2023-02-11T00:04:16.066Z,4.86
2023-02-11T00:05:10.091Z,4.96
2023-02-11T00:06:16.027Z,5.00
2023-02-11T00:06:57.055Z,4.82
2023-02-11T00:07:41.116Z,5.01
2023-02-11T00:08:23.055Z,4.91
2023-02-11T00:09:04.138Z,4.82
2023-02-11T00:09:45.074Z,4.91
2023-02-11T00:10:25.134Z,4.74
2023-02-11T00:11:06.047Z,4.97
2023-02-11T00:11:46.123Z,5.00
2023-02-11T00:12:26.050Z,4.83
2023-02-11T00:13:06.156Z,4.85
2023-02-11T00:13:46.042Z,4.73
2023-02-11T00:14:26.163Z,5.06
2023-02-11T00:15:06.076Z,5.14
2023-02-11T00:15:46.115Z,5.05
2023-02-11T00:16:28.077Z,5.07
2023-02-11T00:17:08.103Z,5.12
2023-02-11T00:17:48.132Z,5.14
2023-02-11T00:18:29.143Z,4.87
2023-02-11T00:19:12.028Z,4.96
2023-02-11T00:19:56.155Z,4.96
2023-02-11T00:20:36.072Z,4.92
2023-02-11T00:21:20.130Z,4.94
2023-02-11T00:22:00.052Z,4.79
2023-02-11T00:22:40.080Z,5.05
2023-02-11T00:23:21.054Z,4.93
2023-02-11T00:24:05.117Z,5.01
2023-02-11T00:24:45.013Z,5.14
2023-02-11T00:25:25.079Z,5.05
2023-02-11T00:26:05.037Z,5.10
2023-02-11T00:26:45.078Z,4.90
2023-02-11T00:27:25.077Z,4.87
2023-02-11T00:28:06.089Z,4.92
2023-02-11T00:28:47.057Z,5.09
2023-02-11T00:29:27.077Z,4.95
2023-02-11T00:30:09.061Z,4.96
2023-02-11T00:30:49.181Z,5.04
2023-02-11T00:31:32.135Z,5.10
2023-02-11T00:32:14.108Z,5.10
2023-02-11T00:32:54.040Z,4.79
2023-02-11T00:33:34.090Z,4.96
2023-02-11T00:34:14.037Z,5.02
2023-02-11T00:34:55.238Z,4.97
2023-02-11T00:35:37.028Z,4.93
2023-02-11T00:36:23.141Z,5.17
2023-02-11T00:37:03.027Z,5.06
2023-02-11T00:37:57.007Z,5.03
2023-02-11T00:38:50.999Z,5.09
2023-02-11T00:39:39.027Z,4.98
2023-02-11T00:40:15.937Z,4.89
2023-02-11T00:41:03.055Z,5.15
2023-02-11T00:41:37.174Z,5.14
2023-02-11T00:42:23.996Z,5.27
2023-02-11T00:42:58.326Z,5.22
2023-02-11T00:43:45.026Z,5.05
2023-02-11T00:44:19.051Z,4.92
2023-02-11T00:44:59.022Z,5.05
2023-02-11T00:45:39.081Z,5.09
2023-02-11T00:46:20.032Z,5.06
2023-02-11T00:47:00.074Z,5.03
2023-02-11T00:47:40.010Z,5.15
2023-02-11T00:48:21.088Z,5.03
2023-02-11T00:49:05.023Z,4.96
2023-02-11T00:49:45.057Z,4.99
2023-02-11T00:50:26.047Z,4.94
2023-02-11T00:51:06.040Z,5.04
2023-02-11T00:51:45.981Z,5.02
2023-02-11T00:52:26.219Z,4.92
2023-02-11T00:53:05.984Z,4.96
2023-02-11T00:53:46.087Z,5.00
2023-02-11T00:54:27.818Z,5.04
2023-02-11T00:55:09.120Z,4.94
2023-02-11T00:55:49.308Z,4.98
2023-02-11T00:56:30.070Z,5.01
2023-02-11T00:57:10.992Z,5.02
2023-02-11T00:57:51.167Z,5.01
2023-02-11T00:58:30.981Z,5.02
2023-02-11T00:59:11.033Z,4.90
2023-02-11T00:59:50.982Z,5.11
2023-02-11T01:00:31.111Z,4.88
2023-02-11T01:01:12.051Z,5.05
2023-02-11T01:01:52.074Z,4.97
2023-02-11T01:02:31.989Z,5.02
2023-02-11T01:03:26.012Z,5.06
2023-02-11T01:04:19.975Z,5.16
2023-02-11T01:05:13.972Z,5.03
2023-02-11T01:06:07.969Z,5.10
2023-02-11T01:06:48.037Z,5.08
2023-02-11T01:07:28.068Z,4.92
2023-02-11T01:08:08.999Z,4.89
2023-02-11T01:08:49.088Z,5.05
2023-02-11T01:09:28.954Z,4.99
2023-02-11T01:10:09.169Z,4.95
2023-02-11T01:10:49.943Z,4.85
2023-02-11T01:11:30.126Z,4.88
2023-02-11T01:12:10.980Z,4.89
2023-02-11T01:12:51.052Z,4.80
2023-02-11T01:13:33.004Z,4.76
2023-02-11T01:14:13.102Z,4.91
2023-02-11T01:14:52.971Z,4.81
2023-02-11T01:15:33.100Z,4.86
2023-02-11T01:16:15.029Z,4.95
2023-02-11T01:16:55.084Z,4.83
2023-02-11T01:17:34.999Z,4.94
2023-02-11T01:18:15.057Z,4.82
2023-02-11T01:18:55.940Z,4.82
2023-02-11T01:19:36.021Z,4.73
2023-02-11T01:20:26.021Z,4.97
2023-02-11T01:21:06.051Z,4.85
2023-02-11T01:21:45.995Z,4.92
2023-02-11T01:22:26.049Z,4.88
2023-02-11T01:23:06.008Z,4.79
2023-02-11T01:23:46.045Z,4.83
2023-02-11T01:24:26.963Z,4.80
2023-02-11T01:25:08.039Z,4.86
2023-02-11T01:25:48.096Z,4.88
2023-02-11T01:26:28.078Z,4.90
2023-02-11T01:27:07.969Z,4.87
2023-02-11T01:27:48.022Z,4.62
2023-02-11T01:28:33.076Z,4.67
2023-02-11T01:29:26.949Z,4.80
2023-02-11T01:30:23.008Z,4.79
2023-02-11T01:31:18.052Z,4.75
2023-02-11T01:32:12.989Z,4.75
2023-02-11T01:33:07.027Z,4.79
2023-02-11T01:33:53.993Z,4.89
2023-02-11T01:34:27.996Z,4.80
2023-02-11T01:35:14.958Z,4.81
2023-02-11T01:35:49.646Z,4.89
2023-02-11T01:36:36.944Z,4.78
2023-02-11T01:37:11.007Z,4.65
2023-02-11T01:37:57.935Z,4.80
2023-02-11T01:38:33.011Z,4.79
2023-02-11T01:39:14.954Z,4.78
2023-02-11T01:39:55.054Z,4.87
2023-02-11T01:40:35.942Z,4.96
2023-02-11T01:41:18.995Z,4.90
2023-02-11T01:41:59.941Z,4.92
2023-02-11T01:42:39.997Z,4.76
2023-02-11T01:43:19.950Z,4.80
2023-02-11T01:43:59.988Z,4.82
2023-02-11T01:44:44.976Z,4.89
2023-02-11T01:46:05.045Z,4.88
2023-02-11T01:46:45.037Z,4.90
2023-02-11T01:47:26.013Z,4.74
2023-02-11T01:48:08.963Z,4.66
2023-02-11T01:48:52.034Z,4.81
2023-02-11T01:49:39.939Z,4.80
2023-02-11T01:50:19.973Z,4.75
2023-02-11T01:50:58.024Z,4.80
2023-02-11T01:52:13.933Z,4.86
2023-02-11T01:52:48.028Z,4.70
2023-02-11T01:53:54.954Z,4.80
2023-02-11T01:54:51.492Z,4.74
2023-02-11T01:55:57.947Z,4.71
2023-02-11T01:56:52.547Z,4.79
2023-02-11T01:57:43.907Z,4.83
2023-02-11T01:58:17.976Z,4.61
2023-02-11T01:59:11.914Z,4.84
2023-02-11T02:00:04.402Z,4.78
2023-02-11T02:00:50.936Z,4.80
2023-02-11T02:01:36.984Z,4.75
2023-02-11T02:02:34.924Z,4.90
2023-02-11T02:03:33.992Z,4.88
2023-02-11T02:04:33.917Z,4.75
2023-02-11T02:05:46.936Z,4.80
2023-02-11T02:06:54.948Z,4.71
2023-02-11T02:08:21.955Z,4.82
2023-02-11T02:09:22.908Z,4.87
2023-02-11T02:10:27.920Z,4.83
2023-02-11T02:11:22.918Z,4.78
2023-02-11T02:12:09.951Z,4.71
2023-02-11T02:12:44.059Z,4.75
2023-02-11T02:13:31.916Z,4.84
2023-02-11T02:14:06.031Z,4.80
2023-02-11T02:14:52.914Z,4.69
2023-02-11T02:15:30.985Z,4.67
2023-02-11T02:16:23.958Z,4.73
2023-02-11T02:16:57.951Z,4.69
2023-02-11T02:17:46.928Z,4.61
2023-02-11T02:18:56.017Z,4.68
2023-02-11T02:20:04.910Z,4.75
2023-02-11T02:21:19.016Z,4.81
2023-02-11T02:22:10.904Z,4.77
2023-02-11T02:23:24.966Z,4.63
2023-02-11T02:25:11.949Z,4.74
2023-02-11T02:26:24.988Z,4.65
2023-02-11T02:27:40.904Z,4.74
2023-02-11T02:29:19.976Z,4.77
2023-02-11T02:30:52.997Z,4.74
2023-02-11T02:32:27.909Z,4.96
2023-02-11T02:33:36.889Z,4.77
2023-02-11T02:34:51.915Z,4.89
2023-02-11T02:36:08.890Z,4.89
2023-02-11T02:37:21.893Z,4.84
2023-02-11T02:38:42.899Z,4.63
2023-02-11T02:39:42.891Z,4.93
2023-02-11T02:40:37.916Z,4.82
2023-02-11T02:41:26.000Z,4.99
2023-02-11T02:42:06.856Z,4.92
2023-02-11T02:42:47.931Z,4.82
2023-02-11T02:43:29.888Z,4.90
2023-02-11T02:44:10.017Z,4.83
2023-02-11T02:44:56.873Z,4.86
2023-02-11T02:45:36.954Z,4.85
2023-02-11T02:46:22.920Z,4.86
2023-02-11T02:47:03.012Z,4.80
2023-02-11T02:47:42.857Z,4.83
2023-02-11T02:48:39.955Z,4.79
2023-02-11T02:49:22.876Z,4.90
2023-02-11T02:50:02.920Z,4.73
2023-02-11T02:50:43.895Z,4.62
2023-02-11T02:51:39.904Z,4.71
2023-02-11T02:53:13.861Z,4.75
2023-02-11T02:54:24.854Z,4.80
2023-02-11T02:56:17.887Z,4.74
2023-02-11T02:57:42.886Z,4.83
2023-02-11T02:58:48.919Z,4.85
2023-02-11T03:00:32.882Z,4.89
2023-02-11T03:01:30.917Z,4.80
2023-02-11T03:02:30.862Z,4.84
2023-02-11T03:04:07.967Z,4.84
2023-02-11T03:04:58.241Z,4.79
2023-02-11T03:05:59.878Z,4.73
2023-02-11T03:07:00.535Z,4.84
2023-02-11T03:08:37.887Z,5.05
2023-02-11T03:09:57.890Z,5.14
2023-02-11T03:10:44.932Z,4.90
2023-02-11T03:11:26.840Z,4.92
2023-02-11T03:12:09.925Z,5.00
2023-02-11T03:12:51.848Z,4.99
2023-02-11T03:13:36.961Z,5.05
2023-02-11T03:14:20.885Z,5.17
2023-02-11T03:15:07.882Z,5.06
2023-02-11T03:15:46.180Z,5.06
2023-02-11T03:16:45.852Z,4.88
2023-02-11T03:17:19.984Z,5.04
2023-02-11T03:18:10.025Z,5.11
2023-02-11T03:18:51.360Z,5.03
2023-02-11T03:19:43.839Z,5.06
2023-02-11T03:20:25.864Z,5.05
2023-02-11T03:21:07.925Z,5.11
2023-02-11T03:21:49.827Z,5.04
2023-02-11T03:22:41.926Z,5.00
2023-02-11T03:23:35.864Z,5.00
2023-02-11T03:24:37.908Z,4.88
2023-02-11T03:25:18.837Z,5.02
2023-02-11T03:26:05.912Z,5.02
2023-02-11T03:26:46.016Z,4.96
2023-02-11T03:27:52.636Z,5.09
2023-02-11T03:28:44.819Z,5.18
2023-02-11T03:29:49.243Z,5.12
2023-02-11T03:30:42.121Z,5.07
2023-02-11T03:31:46.863Z,5.01
2023-02-11T03:32:34.937Z,5.07
2023-02-11T03:33:25.359Z,4.90
2023-02-11T03:34:18.826Z,4.90
2023-02-11T03:35:10.947Z,4.87
2023-02-11T03:36:17.644Z,4.97
2023-02-11T03:37:27.872Z,4.76
2023-02-11T03:38:12.912Z,4.70
2023-02-11T03:38:51.047Z,4.71
2023-02-11T03:39:41.817Z,4.75
2023-02-11T03:40:23.879Z,4.74
2023-02-11T03:40:58.851Z,4.69
2023-02-11T03:41:40.844Z,4.61
2023-02-11T03:42:15.854Z,4.73
2023-02-11T03:43:01.836Z,4.67
2023-02-11T03:44:03.870Z,4.76
2023-02-11T03:45:07.819Z,4.67
2023-02-11T03:45:48.058Z,4.66
2023-02-11T03:46:35.819Z,4.82
2023-02-11T03:47:17.862Z,4.82
2023-02-11T03:48:24.822Z,4.67
2023-02-11T03:49:13.889Z,4.48
2023-02-11T03:49:54.833Z,4.57
2023-02-11T03:50:37.935Z,4.62
2023-02-11T03:51:19.867Z,4.71
2023-02-11T03:52:00.876Z,4.62
2023-02-11T03:52:42.815Z,4.65
2023-02-11T03:53:24.008Z,4.69
2023-02-11T03:54:06.799Z,4.80
2023-02-11T03:54:48.953Z,4.73
2023-02-11T03:55:32.838Z,4.64
2023-02-11T03:56:17.869Z,4.83
2023-02-11T03:57:02.811Z,4.79
2023-02-11T03:57:43.853Z,4.54
2023-02-11T03:58:23.791Z,4.70
2023-02-11T03:59:04.882Z,4.69
2023-02-11T04:00:01.828Z,4.70
2023-02-11T04:00:48.881Z,4.65
2023-02-11T04:01:28.824Z,4.58
2023-02-11T04:02:08.861Z,4.68
2023-02-11T04:02:49.859Z,4.66
2023-02-11T04:03:33.016Z,4.61
2023-02-11T04:04:12.794Z,4.62
2023-02-11T04:04:53.943Z,4.70
2023-02-11T04:05:33.836Z,4.52
2023-02-11T04:06:14.843Z,4.65
2023-02-11T04:06:54.791Z,4.66
2023-02-11T04:07:35.869Z,4.73
2023-02-11T04:08:15.786Z,4.74
2023-02-11T04:08:56.186Z,4.74
2023-02-11T04:09:36.809Z,4.82
2023-02-11T04:10:18.914Z,4.89
2023-02-11T04:10:58.817Z,4.83
2023-02-11T04:11:39.823Z,4.68
2023-02-11T04:12:19.793Z,4.66
2023-02-11T04:12:59.838Z,4.76
2023-02-11T04:13:39.781Z,4.68
2023-02-11T04:14:19.862Z,4.69
2023-02-11T04:14:59.769Z,4.76
2023-02-11T04:15:40.922Z,4.71
2023-02-11T04:16:20.846Z,4.79
2023-02-11T04:17:01.822Z,4.62
2023-02-11T04:17:42.780Z,4.86
2023-02-11T04:18:22.827Z,4.76
2023-02-11T04:19:03.757Z,4.85
2023-02-11T04:19:44.839Z,4.95
2023-02-11T04:20:25.801Z,4.75
2023-02-11T04:21:05.825Z,4.71
2023-02-11T04:21:45.792Z,4.88
2023-02-11T04:22:25.869Z,4.80
2023-02-11T04:23:05.780Z,4.61
2023-02-11T04:23:46.841Z,4.66
2023-02-11T04:24:26.757Z,4.65
2023-02-11T04:25:06.838Z,4.63
2023-02-11T04:25:46.757Z,4.56
2023-02-11T04:26:26.811Z,4.62
2023-02-11T04:27:06.809Z,4.55
2023-02-11T04:27:47.832Z,4.65
2023-02-11T04:28:27.830Z,4.79
2023-02-11T04:29:07.828Z,4.76
2023-02-11T04:29:47.778Z,4.68
2023-02-11T04:30:27.836Z,4.58
2023-02-11T04:31:07.804Z,4.67
2023-02-11T04:31:48.903Z,4.58
2023-02-11T04:32:28.767Z,4.71
2023-02-11T04:33:08.857Z,4.76
2023-02-11T04:33:48.754Z,4.68
2023-02-11T04:34:29.895Z,4.72
2023-02-11T04:35:10.773Z,4.84
2023-02-11T04:35:52.117Z,4.87
2023-02-11T04:36:32.761Z,4.94
2023-02-11T04:37:13.836Z,4.86
2023-02-11T04:37:53.773Z,4.79
2023-02-11T04:38:33.820Z,4.81
2023-02-11T04:39:13.740Z,4.80
2023-02-11T04:39:54.812Z,4.87
2023-02-11T04:40:34.764Z,4.71
2023-02-11T04:41:14.829Z,4.75
2023-02-11T04:41:54.747Z,4.90
2023-02-11T04:42:34.822Z,4.63
2023-02-11T04:43:14.774Z,4.70
2023-02-11T04:43:55.832Z,4.71
2023-02-11T04:44:35.748Z,4.67
2023-02-11T04:45:15.809Z,4.70
2023-02-11T04:45:55.808Z,4.61
2023-02-11T04:46:35.822Z,4.71
2023-02-11T04:47:15.728Z,4.80
2023-02-11T04:47:56.866Z,4.79
2023-02-11T04:48:36.777Z,4.78
2023-02-11T04:49:20.859Z,4.90
2023-02-11T04:50:00.769Z,4.85
2023-02-11T04:50:40.853Z,4.68
2023-02-11T04:51:20.765Z,4.67
2023-02-11T04:52:01.797Z,4.85
2023-02-11T04:52:41.749Z,4.82
2023-02-11T04:53:21.842Z,4.83
2023-02-11T04:54:01.753Z,4.73
2023-02-11T04:54:41.820Z,4.81
2023-02-11T04:55:21.764Z,4.73
2023-02-11T04:56:02.810Z,4.69
2023-02-11T04:56:44.765Z,4.73
2023-02-11T04:57:24.821Z,4.61
2023-02-11T04:58:04.760Z,4.73
2023-02-11T04:58:44.792Z,4.89
2023-02-11T04:59:24.734Z,4.79
2023-02-11T05:00:05.779Z,4.83
2023-02-11T05:00:45.761Z,4.74
2023-02-11T05:01:26.092Z,4.93
2023-02-11T05:02:06.726Z,4.90
2023-02-11T05:02:46.811Z,4.79
2023-02-11T05:03:28.771Z,4.89
2023-02-11T05:04:09.830Z,5.03
2023-02-11T05:04:51.773Z,4.95
2023-02-11T05:05:31.775Z,4.68
2023-02-11T05:06:12.718Z,4.83
2023-02-11T05:06:52.830Z,4.85
2023-02-11T05:07:32.724Z,4.92
2023-02-11T05:08:14.837Z,4.91
2023-02-11T05:08:56.744Z,5.04
2023-02-11T05:09:36.838Z,4.95
2023-02-11T05:10:16.735Z,4.97
2023-02-11T05:10:56.783Z,4.74
2023-02-11T05:11:36.738Z,4.82
2023-02-11T05:12:18.805Z,4.85
2023-02-11T05:12:58.726Z,4.91
2023-02-11T05:13:38.792Z,4.86
2023-02-11T05:14:18.731Z,4.82
2023-02-11T05:14:58.799Z,4.69
2023-02-11T05:15:38.750Z,4.87
2023-02-11T05:16:19.852Z,4.81
2023-02-11T05:16:59.825Z,4.89
2023-02-11T05:17:39.789Z,4.79
2023-02-11T05:18:21.729Z,4.68
2023-02-11T05:19:01.792Z,4.69
2023-02-11T05:19:41.707Z,4.86
2023-02-11T05:20:22.794Z,4.82
2023-02-11T05:21:02.741Z,4.75
2023-02-11T05:21:56.637Z,4.97
2023-02-11T05:22:40.719Z,4.80
2023-02-11T05:23:20.765Z,4.81
2023-02-11T05:24:00.728Z,4.76
2023-02-11T05:24:41.749Z,5.01
2023-02-11T05:25:21.711Z,4.80
2023-02-11T05:26:02.097Z,4.86
2023-02-11T05:26:42.770Z,4.92
2023-02-11T05:27:22.798Z,4.90
2023-02-11T05:28:02.803Z,4.87
2023-02-11T05:28:44.823Z,4.91
2023-02-11T05:29:25.729Z,4.91
2023-02-11T05:30:05.771Z,4.90
2023-02-11T05:30:45.737Z,4.95
2023-02-11T05:31:25.792Z,5.15
2023-02-11T05:32:06.760Z,5.20
2023-02-11T05:32:47.766Z,5.32
2023-02-11T05:33:27.712Z,5.24
2023-02-11T05:34:07.793Z,5.20
2023-02-11T05:34:47.704Z,5.28
2023-02-11T05:35:27.806Z,5.21
2023-02-11T05:36:17.692Z,5.20
2023-02-11T05:36:58.808Z,5.25
2023-02-11T05:37:38.785Z,5.28
2023-02-11T05:38:18.752Z,5.04
2023-02-11T05:38:58.672Z,5.07
2023-02-11T05:39:38.746Z,5.30
2023-02-11T05:40:18.751Z,5.21
2023-02-11T05:40:59.751Z,5.22
2023-02-11T05:41:39.699Z,5.24
2023-02-11T05:42:20.757Z,5.48
2023-02-11T05:43:00.728Z,5.50
2023-02-11T05:43:40.840Z,5.48
2023-02-11T05:44:20.678Z,5.32
2023-02-11T05:45:01.785Z,5.26
2023-02-11T05:45:41.649Z,5.37
2023-02-11T05:46:21.768Z,5.27
2023-02-11T05:47:01.756Z,5.50
2023-02-11T05:47:41.771Z,5.62
2023-02-11T05:48:21.691Z,5.46
2023-02-11T05:49:02.764Z,5.41
2023-02-11T05:49:42.676Z,5.19
2023-02-11T05:50:22.750Z,5.16
2023-02-11T05:51:02.662Z,5.09
2023-02-11T05:51:42.728Z,5.19
2023-02-11T05:52:30.683Z,5.37
2023-02-11T05:53:05.595Z,5.14
2023-02-11T05:53:45.719Z,5.32
2023-02-11T05:54:25.759Z,5.34
2023-02-11T05:55:05.687Z,5.27
2023-02-11T05:55:45.767Z,5.20
2023-02-11T05:56:25.668Z,5.20
2023-02-11T05:57:06.792Z,5.29
2023-02-11T05:57:46.668Z,5.22
2023-02-11T05:58:26.810Z,5.26
2023-02-11T05:59:07.677Z,5.15
2023-02-11T05:59:47.779Z,5.01
2023-02-11T06:00:27.680Z,4.90
2023-02-11T06:01:07.740Z,5.23
2023-02-11T06:01:48.671Z,5.22
2023-02-11T06:02:28.774Z,5.17
2023-02-11T06:03:10.689Z,5.11
2023-02-11T06:03:51.360Z,5.13
2023-02-11T06:04:31.682Z,5.21
2023-02-11T06:05:11.715Z,5.27
2023-02-11T06:05:52.880Z,5.40
2023-02-11T06:06:33.729Z,5.40
2023-02-11T06:07:13.703Z,5.44
2023-02-11T06:07:54.099Z,5.37
2023-02-11T06:08:33.666Z,5.19
2023-02-11T06:09:13.718Z,5.41
2023-02-11T06:09:53.666Z,5.29
2023-02-11T06:10:33.766Z,5.22
2023-02-11T06:11:14.652Z,5.20
2023-02-11T06:11:54.703Z,5.16
2023-02-11T06:12:35.667Z,5.32
2023-02-11T06:13:18.518Z,5.27
2023-02-11T06:13:58.696Z,5.14
2023-02-11T06:14:41.755Z,5.20
2023-02-11T06:15:21.672Z,5.27
2023-02-11T06:16:06.823Z,5.10
2023-02-11T06:16:46.657Z,5.20
2023-02-11T06:17:31.626Z,5.11
2023-02-11T06:18:12.668Z,5.04
2023-02-11T06:18:52.748Z,5.01
2023-02-11T06:19:33.669Z,5.07
2023-02-11T06:20:15.731Z,5.10
2023-02-11T06:20:55.675Z,5.02
2023-02-11T06:21:43.766Z,4.91
2023-02-11T06:22:24.646Z,5.10
2023-02-11T06:23:04.707Z,4.90
2023-02-11T06:23:45.633Z,4.90
2023-02-11T06:24:50.951Z,4.82
2023-02-11T06:25:26.649Z,4.89
2023-02-11T06:26:21.670Z,4.80
2023-02-11T06:27:17.704Z,4.89
2023-02-11T06:28:11.698Z,4.98
2023-02-11T06:29:05.830Z,4.78
2023-02-11T06:30:00.635Z,4.86
2023-02-11T06:30:54.718Z,4.80
2023-02-11T06:31:44.740Z,4.70
2023-02-11T06:32:42.275Z,4.89
2023-02-11T06:33:28.829Z,4.87
2023-02-11T06:34:05.753Z,4.90
2023-02-11T06:34:56.765Z,4.89
2023-02-11T06:35:30.769Z,4.90
2023-02-11T06:36:27.698Z,4.70
2023-02-11T06:37:08.708Z,4.96
2023-02-11T06:38:02.666Z,4.81
2023-02-11T06:39:00.474Z,4.96
2023-02-11T06:39:54.656Z,4.97
2023-02-11T06:40:51.692Z,4.82
2023-02-11T06:41:45.769Z,4.99
2023-02-11T06:42:32.697Z,4.86
2023-02-11T06:43:06.682Z,4.73
2023-02-11T06:43:54.626Z,4.85
2023-02-11T06:44:28.663Z,4.68
2023-02-11T06:45:17.653Z,4.74
2023-02-11T06:45:51.971Z,4.79
2023-02-11T06:46:38.657Z,4.74
2023-02-11T06:47:13.719Z,4.74
2023-02-11T06:47:57.660Z,4.99
2023-02-11T06:48:37.712Z,4.65
2023-02-11T06:49:17.643Z,4.86
2023-02-11T06:49:57.699Z,4.77
2023-02-11T06:50:37.606Z,4.90
2023-02-11T06:51:20.830Z,5.02
2023-02-11T06:52:00.630Z,4.99
2023-02-11T06:52:41.763Z,5.17
2023-02-11T06:53:21.644Z,5.14
2023-02-11T06:54:04.708Z,5.13
2023-02-11T06:54:44.645Z,5.01
2023-02-11T06:55:25.666Z,5.01
2023-02-11T06:56:18.628Z,5.03
2023-02-11T06:56:58.740Z,4.95
2023-02-11T06:57:39.600Z,5.01
2023-02-11T06:58:19.775Z,4.92
2023-02-11T06:59:04.641Z,5.08
2023-02-11T06:59:44.674Z,4.86
2023-02-11T07:00:25.594Z,4.98
2023-02-11T07:01:06.636Z,5.05
2023-02-11T07:01:46.660Z,5.23
2023-02-11T07:02:26.724Z,5.14
2023-02-11T07:03:06.641Z,5.05
2023-02-11T07:03:50.691Z,4.88
2023-02-11T07:04:30.658Z,4.97
2023-02-11T07:05:13.732Z,4.94
2023-02-11T07:05:53.597Z,5.13
2023-02-11T07:06:34.883Z,5.12
2023-02-11T07:07:14.610Z,5.16
2023-02-11T07:07:54.664Z,5.20
2023-02-11T07:08:34.603Z,5.18
2023-02-11T07:09:15.662Z,5.20
2023-02-11T07:09:55.596Z,5.05
2023-02-11T07:10:35.642Z,5.29
2023-02-11T07:11:22.618Z,4.98
2023-02-11T07:12:03.677Z,5.09
2023-02-11T07:12:45.606Z,5.01
2023-02-11T07:13:25.653Z,4.96
2023-02-11T07:14:19.617Z,4.73
2023-02-11T07:14:53.391Z,4.96
2023-02-11T07:15:33.598Z,4.94
2023-02-11T07:16:13.719Z,5.05
2023-02-11T07:16:47.249Z,5.03
2023-02-11T07:17:27.613Z,5.10
2023-02-11T07:18:01.677Z,5.02
2023-02-11T07:18:35.426Z,5.11
2023-02-11T07:19:16.075Z,5.09
2023-02-11T07:19:50.675Z,5.16
2023-02-11T07:20:24.602Z,5.05
2023-02-11T07:21:05.672Z,5.04
2023-02-11T07:21:39.653Z,5.05
2023-02-11T07:22:13.344Z,5.13
2023-02-11T07:22:55.585Z,4.99
2023-02-11T07:23:29.671Z,5.02
2023-02-11T07:24:10.915Z,4.92
2023-02-11T07:24:52.601Z,4.96
2023-02-11T07:25:26.667Z,5.00
2023-02-11T07:26:05.391Z,5.02
2023-02-11T07:26:45.609Z,5.06
2023-02-11T07:27:19.649Z,4.94
2023-02-11T07:27:54.323Z,4.87
2023-02-11T07:28:34.617Z,5.09
2023-02-11T07:29:08.654Z,5.25
2023-02-11T07:29:43.399Z,5.07
2023-02-11T07:30:25.614Z,5.10
2023-02-11T07:30:59.787Z,4.93
2023-02-11T07:31:33.326Z,5.13
2023-02-11T07:32:14.655Z,5.07
2023-02-11T07:32:48.634Z,5.12
2023-02-11T07:33:22.305Z,5.04
2023-02-11T07:34:06.563Z,5.11
2023-02-11T07:34:48.198Z,5.23
2023-02-11T07:35:28.573Z,5.37
2023-02-11T07:36:09.599Z,5.40
2023-02-11T07:36:51.587Z,5.29
2023-02-11T07:37:38.639Z,5.33
2023-02-11T07:38:12.261Z,5.33
2023-02-11T07:39:00.838Z,5.37
2023-02-11T07:39:34.312Z,5.30
2023-02-11T07:40:23.556Z,5.32
2023-02-11T07:41:05.484Z,5.37
2023-02-11T07:41:54.565Z,5.33
2023-02-11T07:42:28.289Z,5.39
2023-02-11T07:43:09.591Z,5.17
2023-02-11T07:43:44.632Z,5.30
2023-02-11T07:44:18.682Z,5.30
2023-02-11T07:44:59.572Z,5.22
2023-02-11T07:45:33.639Z,5.20
2023-02-11T07:46:10.682Z,5.35
2023-02-11T07:46:51.648Z,5.37
2023-02-11T07:47:25.638Z,5.34
2023-02-11T07:47:59.244Z,5.46
2023-02-11T07:48:39.558Z,5.53
2023-02-11T07:49:13.609Z,5.44
2023-02-11T07:49:47.662Z,5.34
2023-02-11T07:50:27.568Z,5.47
2023-02-11T07:51:01.604Z,5.48
2023-02-11T07:51:35.240Z,5.46
2023-02-11T07:52:16.553Z,5.40
2023-02-11T07:52:53.820Z,5.43
2023-02-11T07:53:29.388Z,5.52
2023-02-11T07:54:10.584Z,5.48
2023-02-11T07:54:44.643Z,5.34
2023-02-11T07:55:18.364Z,5.44
2023-02-11T07:55:59.524Z,5.52
2023-02-11T07:56:34.615Z,5.33
2023-02-11T07:57:09.306Z,5.36
2023-02-11T07:57:50.584Z,5.51
2023-02-11T07:58:24.591Z,5.44
2023-02-11T07:59:01.838Z,5.47
2023-02-11T07:59:41.569Z,5.43
2023-02-11T08:00:19.335Z,5.29
2023-02-11T08:00:55.820Z,5.48
2023-02-11T08:01:37.557Z,5.49
2023-02-11T08:02:11.666Z,5.34
2023-02-11T08:02:45.243Z,5.30
2023-02-11T08:03:25.549Z,5.35
2023-02-11T08:03:59.667Z,5.22
2023-02-11T08:04:33.337Z,5.21
2023-02-11T08:05:14.580Z,5.22
2023-02-11T08:05:48.663Z,5.26
2023-02-11T08:06:24.351Z,5.26
2023-02-11T08:07:05.565Z,5.19
2023-02-11T08:07:39.607Z,5.18
2023-02-11T08:08:13.431Z,5.12
2023-02-11T08:08:55.570Z,5.14
2023-02-11T08:09:34.388Z,5.01
2023-02-11T08:10:09.866Z,5.11
2023-02-11T08:10:50.761Z,4.98
2023-02-11T08:11:34.697Z,5.10
2023-02-11T08:12:09.220Z,5.10
2023-02-11T08:12:49.534Z,5.22
2023-02-11T08:13:23.635Z,5.16
2023-02-11T08:13:57.296Z,5.27
2023-02-11T08:14:39.542Z,5.21
2023-02-11T08:15:13.638Z,5.14
2023-02-11T08:15:51.032Z,5.04
2023-02-11T08:16:41.628Z,5.19
2023-02-11T08:17:15.651Z,5.19
2023-02-11T08:17:49.248Z,5.16
2023-02-11T08:18:29.557Z,5.20
2023-02-11T08:19:06.629Z,5.05
2023-02-11T08:19:42.856Z,5.01
2023-02-11T08:20:23.514Z,5.04
2023-02-11T08:20:57.573Z,5.03
2023-02-11T08:21:31.506Z,5.16
2023-02-11T08:22:11.514Z,5.16
2023-02-11T08:22:45.626Z,5.29
2023-02-11T08:23:19.306Z,5.17
2023-02-11T08:24:00.547Z,5.20
2023-02-11T08:24:34.601Z,5.20
2023-02-11T08:25:09.381Z,5.19
2023-02-11T08:25:49.516Z,5.27
2023-02-11T08:26:31.727Z,5.23
2023-02-11T08:27:06.217Z,5.23
2023-02-11T08:27:46.519Z,5.23
2023-02-11T08:28:20.605Z,5.14
2023-02-11T08:28:56.111Z,5.27
2023-02-11T08:29:37.534Z,5.27
2023-02-11T08:30:11.587Z,5.25
2023-02-11T08:30:45.254Z,5.32
2023-02-11T08:31:39.746Z,5.39
2023-02-11T08:32:13.640Z,5.48
2023-02-11T08:32:53.540Z,5.45
2023-02-11T08:33:34.650Z,5.39
2023-02-11T08:34:16.514Z,5.31
2023-02-11T08:35:00.570Z,5.39
2023-02-11T08:35:42.511Z,5.47
2023-02-11T08:36:29.561Z,5.32
2023-02-11T08:37:09.508Z,5.29
2023-02-11T08:37:49.622Z,5.14
2023-02-11T08:38:29.548Z,5.26
2023-02-11T08:39:20.066Z,5.36
2023-02-11T08:40:00.528Z,5.30
2023-02-11T08:40:40.561Z,5.37
2023-02-11T08:41:22.511Z,5.28
2023-02-11T08:42:02.581Z,5.20
2023-02-11T08:42:42.523Z,5.23
2023-02-11T08:43:23.591Z,5.34
2023-02-11T08:44:04.505Z,5.18
2023-02-11T08:44:46.557Z,5.21
2023-02-11T08:45:26.482Z,5.24
2023-02-11T08:46:07.615Z,5.45
2023-02-11T08:46:47.482Z,5.36
2023-02-11T08:47:29.613Z,5.40
2023-02-11T08:48:09.460Z,5.16
2023-02-11T08:48:50.565Z,5.30
2023-02-11T08:49:30.512Z,5.20
2023-02-11T08:50:11.956Z,5.29
2023-02-11T08:50:52.489Z,5.46
2023-02-11T08:51:35.620Z,5.51
2023-02-11T08:52:16.505Z,5.52
2023-02-11T08:52:56.556Z,5.58
2023-02-11T08:53:36.483Z,5.53
2023-02-11T08:54:17.607Z,5.41
2023-02-11T08:54:57.501Z,5.47
2023-02-11T08:55:38.621Z,5.47
2023-02-11T08:56:25.500Z,5.52
2023-02-11T08:57:06.606Z,5.56
2023-02-11T08:57:46.495Z,5.57
2023-02-11T08:58:28.589Z,5.60
2023-02-11T08:59:09.588Z,5.65
2023-02-11T08:59:50.549Z,5.53
2023-02-11T09:00:30.510Z,5.50
2023-02-11T09:01:23.617Z,5.51
2023-02-11T09:02:04.524Z,5.47
2023-02-11T09:02:44.551Z,5.64
2023-02-11T09:03:24.548Z,5.36
2023-02-11T09:04:05.530Z,5.67
2023-02-11T09:04:52.582Z,5.71
2023-02-11T09:05:40.548Z,5.69
2023-02-11T09:06:15.124Z,5.52
2023-02-11T09:07:02.546Z,5.39
2023-02-11T09:07:37.154Z,5.58
2023-02-11T09:08:25.521Z,5.62
2023-02-11T09:08:59.668Z,5.63
2023-02-11T09:09:47.494Z,5.62
2023-02-11T09:10:21.170Z,5.76
2023-02-11T09:11:03.532Z,5.56
2023-02-11T09:11:41.735Z,5.71
2023-02-11T09:12:15.203Z,5.72
2023-02-11T09:12:55.693Z,5.60
2023-02-11T09:13:29.540Z,5.57
2023-02-11T09:14:04.994Z,5.63
2023-02-11T09:14:46.486Z,5.57
2023-02-11T09:15:20.523Z,5.43
2023-02-11T09:15:55.138Z,5.54
2023-02-11T09:16:40.539Z,5.45
2023-02-11T09:17:14.558Z,5.67
2023-02-11T09:17:48.227Z,5.58
2023-02-11T09:18:28.442Z,5.65
2023-02-11T09:19:06.515Z,5.57
2023-02-11T09:19:41.170Z,5.60
2023-02-11T09:20:21.466Z,5.48
2023-02-11T09:20:55.563Z,5.51
2023-02-11T09:21:29.822Z,5.53
2023-02-11T09:22:09.488Z,5.61
2023-02-11T09:22:43.520Z,5.68
2023-02-11T09:23:18.667Z,5.64
2023-02-11T09:23:59.450Z,5.70
2023-02-11T09:24:33.523Z,5.69
2023-02-11T09:25:07.417Z,5.81
2023-02-11T09:25:48.765Z,5.72
2023-02-11T09:26:33.564Z,5.57
2023-02-11T09:27:07.154Z,5.69
2023-02-11T09:27:48.463Z,5.61
2023-02-11T09:28:22.598Z,5.73
2023-02-11T09:28:56.597Z,5.74
2023-02-11T09:29:36.457Z,5.74
2023-02-11T09:30:11.533Z,5.69
2023-02-11T09:30:45.294Z,5.80
2023-02-11T09:31:30.569Z,5.84
2023-02-11T09:32:05.101Z,5.82
2023-02-11T09:32:40.589Z,5.96
2023-02-11T09:33:20.504Z,5.95
2023-02-11T09:33:57.520Z,5.82
2023-02-11T09:34:31.168Z,5.67
2023-02-11T09:35:12.465Z,5.66
2023-02-11T09:35:46.618Z,5.49
2023-02-11T09:36:33.320Z,5.58
2023-02-11T09:37:13.426Z,5.58
2023-02-11T09:37:47.531Z,5.62